x

Tanner Bank - 121nm West Of San Diego, Ca (46047) Wave Buoy

10:50pm - Wed 18th Jan 2017 All times are PST. -8 hours from GMT.

  • Sig Wave height 7.5ft
  • Swell Direction
  • Peak Period 14s
  • Average Period 8s
  • Wind
    25mph, 29mph gusts
  • Sea Temp 60°f
  • Air Temp 59°f
  • Sea Pressure 1015.9mb
  • Tanner Bank - 121nm West Of San Diego, Ca
  • Tanner Bank - 121nm West Of San Diego, Ca

More Historic Weather Station data

Upgrade to MSW Pro to gain access to the past 30 days of data for over 8000 Wavebouys and Weather Stations around the globe.

Join Pro

Comparision Forecast

View Surf forecast
   
Wed 01/18 10:50pm 7.5ft 14s 8s 25 29 mph 1015.9mb 60f 59f
9:50pm 6ft 15s 9s 22 27 mph 1015.8mb 60f 59f
8:50pm 7ft 14s 11s 22 25 mph 1016.3mb 60f 58f
7:50pm 7ft 15s 12s 7 9 mph 1020.2mb 60f 58f
6:50pm 6.5ft 14s 11s 4 9 mph 1020.4mb 60f 59f
5:50pm 6ft 15s 10s 7 9 mph 1020.3mb 60f 59f
4:50pm 6ft 15s 10s 9 13 mph 1020.6mb 60f 59f
3:50pm 6ft 15s 11s 9 13 mph 1020mb 60f 59f
2:50pm 7ft 15s 11s 9 11 mph 1020mb 61f 58f
1:50pm 6ft 15s 11s 9 11 mph 1019.5mb 61f 58f
12:50pm 6ft 16s 11s 9 11 mph 1020.1mb 61f 58f
11:50am 5.5ft 15s 11s 9 11 mph 1020.9mb 61f 58f
10:50am 5.5ft 15s 11s 7 9 mph 1021.6mb 60f 58f
9:50am 5ft 15s 10s 4 7 mph 1022.4mb 60f 58f
8:50am 5ft 16s 10s 9 11 mph 1022.2mb 60f 57f
7:50am 6ft 13s 11s 9 11 mph 1021.7mb 60f 57f
6:50am 5ft 15s 10s 9 13 mph 1021.9mb 60f 57f
5:50am 5ft 15s 11s 9 11 mph 1021.1mb 60f 57f
4:50am 5ft 13s 10s 9 11 mph 1021mb 60f 57f
3:50am 5ft 14s 10s 4 7 mph 1021.3mb 60f 57f
2:50am 5ft 13s 10s 4 7 mph 1020.9mb 60f 56f
1:50am 4.5ft 13s 9s 4 7 mph 1021.2mb 60f 57f
12:50am 5ft 14s 9s 4 7 mph 1021.5mb 60f 57f
Tue 01/17 11:50pm 4.5ft 14s 9s 4 7 mph 1021.7mb 61f 57f
10:50pm 4.5ft 14s 9s 9 11 mph 1021.9mb 61f 57f
9:50pm 4.5ft 14s 9s 13 16 mph 1021.7mb 61f 57f
8:50pm 5.5ft 14s 10s 9 11 mph 1021.1mb 61f 57f
7:50pm 5ft 14s 9s 9 11 mph 1020.8mb 61f 57f
6:50pm 6ft 14s 10s 9 13 mph 1020.5mb 61f 57f
5:50pm 5.5ft 15s 9s 11 13 mph 1020.7mb 61f 57f
4:50pm 6ft 14s 10s 11 13 mph 1020.2mb 61f 57f
3:50pm 6.5ft 15s 10s 7 9 mph 1019.6mb 61f 57f
2:50pm 6ft 15s 10s 11 16 mph 1019.9mb 61f 57f
1:50pm 6ft 15s 10s 2
mph
1019.3mb 60f 58f
12:50pm 6.5ft 15s 10s 2 4 mph 1019mb 60f 58f
11:50am 6ft 15s 10s 4 7 mph 1019.7mb 59f 57f
10:50am 6ft 15s 10s 7 9 mph 1020.3mb 59f 57f
9:50am 6ft 15s 10s 7 9 mph 1020.2mb 59f 57f
8:50am 6ft 15s 11s 4 7 mph 1019.9mb 59f 57f
7:50am 5ft 14s 11s 7 9 mph 1019.4mb 60f 57f
6:50am 6.5ft 15s 11s 7 9 mph 1019.1mb 60f 57f
5:50am 5.5ft 15s 10s 9 11 mph 1018.9mb 60f 57f
4:50am 7ft 15s 12s 9 11 mph 1018.4mb 60f 57f
3:50am 6ft 16s 11s 7 9 mph 1018.3mb 60f 57f
2:50am 6.5ft 15s 11s 7 9 mph 1018.5mb 60f 57f
1:50am 6ft 15s 10s 9 11 mph 1018.3mb 60f 57f
12:50am 6.5ft 16s 11s 9 11 mph 1018.3mb 60f 57f
Mon 01/16 11:50pm 6ft 16s 10s 7 9 mph 1018.7mb 60f 57f
10:50pm 6.5ft 16s 10s 7 9 mph 1018.6mb 60f 57f
9:50pm 7.5ft 16s 11s 9 11 mph 1018.2mb 60f 57f
8:50pm 6.5ft 16s 10s 7 9 mph 1018.1mb 60f 58f
7:50pm 6ft 16s 10s 11 13 mph 1017.8mb 60f 58f
6:50pm 7ft 16s 10s 9 11 mph 1017.7mb 60f 58f
5:50pm 7ft 16s 10s 7 11 mph 1017.6mb 60f 58f
4:50pm 7ft 16s 11s 9 11 mph 1017.4mb 60f 57f
3:50pm 7ft 16s 11s 9 11 mph 1017.5mb 60f 57f
2:50pm 8.5ft 17s 12s 9
mph
1017.3mb 61f 57f
1:50pm 6.5ft 16s 10s 7 9 mph 1017.3mb 61f 57f
12:50pm 7ft 17s 10s 7 9 mph 1017.6mb 60f 56f
11:50am 7ft 17s 10s 7 9 mph 1018.4mb 60f 56f
10:50am 7ft 17s 10s 9 11 mph 1019.1mb 60f 56f
9:50am 6.5ft 17s 9s 9
mph
1019.3mb 60f 56f
8:50am 7ft 17s 10s 7 11 mph 1018.7mb 59f 56f
7:50am 7ft 17s 9s 7
mph
1018.4mb 59f 57f
6:50am 7ft 17s 9s 2
mph
1017.8mb 59f 56f
5:50am 6ft 17s 8s 4 7 mph 1016.9mb 59f 56f
4:50am 7.5ft 19s 9s 2 4 mph 1016.4mb 59f 57f
3:50am 5.5ft 19s 7s 2
mph
1016.6mb 59f 57f
2:50am 5.5ft 19s 7s 4
mph
1016.8mb 60f 56f
1:50am 6ft 19s 7s 11 13 mph 1017.4mb 60f 57f
12:50am 6.5ft 19s 8s 11 16 mph 1017.6mb 60f 56f
Sun 01/15 11:50pm 6.5ft 19s 7s 9 13 mph 1017.6mb 60f 56f
10:50pm 6ft 19s 7s 9 11 mph 1017.9mb 60f 56f
9:50pm 6ft 19s 6s 13 18 mph 1018.2mb 60f 56f
8:50pm 6.5ft 19s 6s 16 20 mph 1018.1mb 59f 56f
7:50pm 6.5ft 19s 7s 18 20 mph 1018mb 59f 56f
6:50pm 7ft 19s 7s 16 18 mph 1017.8mb 59f 56f
5:50pm 6.5ft 8s 6s 13 18 mph 1017.4mb 59f 56f
4:50pm 7ft 8s 6s 16 20 mph 1017.1mb 59f 56f
3:50pm 7ft 8s 6s 16 20 mph 1016.9mb 60f 57f
2:50pm 7.5ft 8s 7s 18 22 mph 1017mb 60f 56f
1:50pm 8ft 8s 6s 20 22 mph 1017.1mb 59f 57f
12:50pm 7ft 7s 6s 18 22 mph 1017.5mb 59f 56f
11:50am 7ft 8s 6s 18 20 mph 1018.2mb 59f 56f
10:50am 7.5ft 8s 6s 16 20 mph 1019.1mb 59f 56f
9:50am 8ft 8s 6s 18 20 mph 1018.9mb 59f 56f
8:50am 8ft 8s 6s 20 22 mph 1018mb 59f 56f
7:50am 7.5ft 8s 6s 20 25 mph 1017.4mb 60f 56f